createdAt,value
2022-11-24T00:01:20.177Z,100.00
2022-11-24T00:03:53.900Z,100.00
2022-11-24T00:06:24.204Z,100.00
2022-11-24T00:08:52.609Z,100.00
2022-11-24T00:11:22.442Z,100.00
2022-11-24T00:13:50.830Z,100.00
2022-11-24T00:16:22.154Z,100.00
2022-11-24T00:18:52.096Z,100.00
2022-11-24T00:21:21.029Z,100.00
2022-11-24T00:23:49.887Z,100.00
2022-11-24T00:26:19.221Z,100.00
2022-11-24T00:28:48.663Z,100.00
2022-11-24T00:31:20.513Z,100.00
2022-11-24T00:33:50.202Z,100.00
2022-11-24T00:36:19.962Z,100.00
2022-11-24T00:38:48.412Z,100.00
2022-11-24T00:41:16.344Z,100.00
2022-11-24T00:43:44.383Z,100.00
2022-11-24T00:46:12.787Z,100.00
2022-11-24T00:48:42.216Z,100.00
2022-11-24T00:51:11.755Z,100.00
2022-11-24T00:53:39.909Z,100.00
2022-11-24T00:56:09.506Z,100.00
2022-11-24T00:58:37.926Z,100.00
2022-11-24T01:01:09.235Z,100.00
2022-11-24T01:03:37.702Z,100.00
2022-11-24T01:06:09.243Z,100.00
2022-11-24T01:08:37.975Z,100.00
2022-11-24T01:11:11.325Z,100.00
2022-11-24T01:13:39.753Z,100.00
2022-11-24T01:16:14.089Z,100.00
2022-11-24T01:18:42.232Z,100.00
2022-11-24T01:21:11.743Z,100.00
2022-11-24T01:23:39.837Z,100.00
2022-11-24T01:26:08.704Z,100.00
2022-11-24T01:28:40.594Z,100.00
2022-11-24T01:31:12.287Z,100.00
2022-11-24T01:33:40.473Z,100.00
2022-11-24T01:36:08.923Z,100.00
2022-11-24T01:38:38.326Z,100.00
2022-11-24T01:41:08.859Z,100.00
2022-11-24T01:43:36.936Z,100.00
2022-11-24T01:46:14.463Z,100.00
2022-11-24T01:48:47.210Z,100.00
2022-11-24T01:51:18.607Z,100.00
2022-11-24T01:53:58.706Z,100.00
2022-11-24T01:56:27.753Z,100.00
2022-11-24T01:58:58.890Z,100.00
2022-11-24T02:01:27.067Z,100.00
2022-11-24T02:03:55.240Z,100.00
2022-11-24T02:06:28.540Z,100.00
2022-11-24T02:09:02.007Z,100.00
2022-11-24T02:11:35.073Z,100.00
2022-11-24T02:14:05.190Z,100.00
2022-11-24T02:16:35.297Z,100.00
2022-11-24T02:19:03.415Z,100.00
2022-11-24T02:21:31.456Z,100.00
2022-11-24T02:24:11.448Z,100.00
2022-11-24T02:26:45.149Z,100.00
2022-11-24T02:29:14.452Z,100.00
2022-11-24T02:31:46.208Z,100.00
2022-11-24T02:34:14.134Z,100.00
2022-11-24T02:36:42.261Z,100.00
2022-11-24T02:39:12.829Z,100.00
2022-11-24T02:41:44.916Z,100.00
2022-11-24T02:44:16.668Z,100.00
2022-11-24T02:46:44.728Z,100.00
2022-11-24T02:49:12.891Z,100.00
2022-11-24T02:51:41.002Z,100.00
2022-11-24T02:54:09.026Z,100.00
2022-11-24T02:56:37.029Z,100.00
2022-11-24T02:59:06.337Z,100.00
2022-11-24T03:01:34.398Z,100.00
2022-11-24T03:04:02.441Z,100.00
2022-11-24T03:06:30.442Z,100.00
2022-11-24T03:08:58.434Z,100.00
2022-11-24T03:11:26.494Z,100.00
2022-11-24T03:13:54.617Z,100.00
2022-11-24T03:16:24.121Z,100.00
2022-11-24T03:18:52.283Z,100.00
2022-11-24T03:21:20.935Z,100.00
2022-11-24T03:23:49.014Z,100.00
2022-11-24T03:26:18.883Z,100.00
2022-11-24T03:28:46.948Z,100.00
2022-11-24T03:31:15.073Z,100.00
2022-11-24T03:33:44.527Z,100.00
2022-11-24T03:36:12.593Z,100.00
2022-11-24T03:38:40.645Z,100.00
2022-11-24T03:41:08.729Z,100.00
2022-11-24T03:43:41.939Z,100.00
2022-11-24T03:46:12.139Z,100.00
2022-11-24T03:48:40.612Z,100.00
2022-11-24T03:51:11.463Z,100.00
2022-11-24T03:53:39.537Z,100.00
2022-11-24T03:56:08.125Z,100.00
2022-11-24T03:58:36.176Z,100.00
2022-11-24T04:01:04.452Z,100.00
2022-11-24T04:03:32.645Z,100.00
2022-11-24T04:06:00.598Z,100.00
2022-11-24T04:08:30.039Z,100.00
2022-11-24T04:10:58.067Z,100.00
2022-11-24T04:13:26.193Z,100.00
2022-11-24T04:15:54.486Z,100.00
2022-11-24T04:18:23.216Z,100.00
2022-11-24T04:20:51.902Z,100.00
2022-11-24T04:23:20.138Z,100.00
2022-11-24T04:25:49.543Z,100.00
2022-11-24T04:28:17.476Z,100.00
2022-11-24T04:30:45.526Z,100.00
2022-11-24T04:33:14.121Z,100.00
2022-11-24T04:35:42.123Z,100.00
2022-11-24T04:38:10.437Z,100.00
2022-11-24T04:40:38.929Z,100.00
2022-11-24T04:43:08.306Z,100.00
2022-11-24T04:45:36.692Z,100.00
2022-11-24T04:48:04.992Z,100.00
2022-11-24T04:50:33.044Z,100.00
2022-11-24T04:53:01.026Z,100.00
2022-11-24T04:55:29.074Z,100.00
2022-11-24T04:57:57.086Z,100.00
2022-11-24T05:00:26.500Z,100.00
2022-11-24T05:02:54.536Z,100.00
2022-11-24T05:05:23.006Z,100.00
2022-11-24T05:07:51.060Z,100.00
2022-11-24T05:10:37.541Z,100.00
2022-11-24T05:13:12.980Z,100.00
2022-11-24T05:15:43.241Z,100.00
2022-11-24T05:18:15.380Z,100.00
2022-11-24T05:20:44.879Z,100.00
2022-11-24T05:23:13.161Z,100.00
2022-11-24T05:25:47.298Z,100.00
2022-11-24T05:28:15.756Z,100.00
2022-11-24T05:30:45.398Z,100.00
2022-11-24T05:33:18.881Z,100.00
2022-11-24T05:35:47.293Z,100.00
2022-11-24T05:38:15.495Z,100.00
2022-11-24T05:40:43.929Z,100.00
2022-11-24T05:43:13.063Z,100.00
2022-11-24T05:45:40.995Z,100.00
2022-11-24T05:48:13.957Z,100.00
2022-11-24T05:50:41.949Z,100.00
2022-11-24T05:53:11.434Z,100.00
2022-11-24T05:55:40.320Z,100.00
2022-11-24T05:58:09.878Z,100.00
2022-11-24T06:00:38.058Z,100.00
2022-11-24T06:03:06.289Z,100.00
2022-11-24T06:05:35.757Z,100.00
2022-11-24T06:08:03.968Z,100.00
2022-11-24T06:10:32.270Z,100.00
2022-11-24T06:13:00.240Z,100.00
2022-11-24T06:15:28.138Z,100.00
2022-11-24T06:17:56.710Z,100.00
2022-11-24T06:20:31.225Z,100.00
2022-11-24T06:23:02.412Z,100.00
2022-11-24T06:25:30.758Z,100.00
2022-11-24T06:27:58.692Z,100.00
2022-11-24T06:30:26.660Z,100.00
2022-11-24T06:32:56.442Z,99.68
2022-11-24T06:35:24.404Z,99.53
2022-11-24T06:37:52.371Z,98.85
2022-11-24T06:40:21.895Z,99.78
2022-11-24T06:42:53.086Z,99.07
2022-11-24T06:45:21.680Z,97.27
2022-11-24T06:47:49.656Z,96.98
2022-11-24T06:50:17.819Z,96.43
2022-11-24T06:52:45.714Z,94.37
2022-11-24T06:55:13.611Z,92.54
2022-11-24T06:57:42.967Z,92.20
2022-11-24T07:00:11.942Z,91.47
2022-11-24T07:02:45.492Z,91.46
2022-11-24T07:05:13.949Z,91.29
2022-11-24T07:07:41.882Z,91.13
2022-11-24T07:10:10.107Z,91.14
2022-11-24T07:12:38.118Z,89.35
2022-11-24T07:15:09.148Z,89.34
2022-11-24T07:17:37.422Z,89.07
2022-11-24T07:20:06.176Z,88.87
2022-11-24T07:22:34.223Z,88.23
2022-11-24T07:25:02.795Z,88.74
2022-11-24T07:27:31.045Z,88.61
2022-11-24T07:29:58.891Z,87.54
2022-11-24T07:32:28.283Z,88.39
2022-11-24T07:34:56.276Z,87.64
2022-11-24T07:37:29.647Z,88.23
2022-11-24T07:39:59.169Z,88.37
2022-11-24T07:42:27.091Z,87.96
2022-11-24T07:44:55.134Z,86.98
2022-11-24T07:47:23.134Z,87.32
2022-11-24T07:49:52.642Z,86.58
2022-11-24T07:52:20.531Z,86.59
2022-11-24T07:54:48.584Z,85.82
2022-11-24T07:57:16.484Z,85.55
2022-11-24T07:59:44.490Z,85.03
2022-11-24T08:02:14.347Z,85.27
2022-11-24T08:04:42.195Z,85.31
2022-11-24T08:07:11.687Z,84.88
2022-11-24T08:09:39.661Z,83.88
2022-11-24T08:12:08.354Z,82.95
2022-11-24T08:14:36.954Z,81.89
2022-11-24T08:17:05.652Z,81.67
2022-11-24T08:19:34.902Z,81.73
2022-11-24T08:22:02.947Z,80.88
2022-11-24T08:24:32.552Z,80.41
2022-11-24T08:27:00.924Z,80.86
2022-11-24T08:29:29.799Z,78.91
2022-11-24T08:31:58.492Z,77.52
2022-11-24T08:34:30.494Z,76.73
2022-11-24T08:36:58.397Z,75.14
2022-11-24T08:39:26.321Z,74.90
2022-11-24T08:41:55.590Z,73.81
2022-11-24T08:44:23.642Z,72.21
2022-11-24T08:46:51.614Z,70.81
2022-11-24T08:49:20.222Z,70.43
2022-11-24T08:51:48.671Z,70.56
2022-11-24T08:54:18.902Z,70.86
2022-11-24T08:56:47.450Z,70.74
2022-11-24T08:59:16.953Z,71.09
2022-11-24T09:01:45.037Z,71.25
2022-11-24T09:04:13.069Z,70.23
2022-11-24T09:06:41.173Z,69.08
2022-11-24T09:09:10.920Z,69.04
2022-11-24T09:11:39.051Z,68.42
2022-11-24T09:14:07.664Z,68.45
2022-11-24T09:16:37.840Z,68.49
2022-11-24T09:19:08.104Z,68.09
2022-11-24T09:21:39.016Z,67.22
2022-11-24T09:24:08.464Z,65.82
2022-11-24T09:26:40.613Z,66.55
2022-11-24T09:29:12.536Z,65.77
2022-11-24T09:31:41.956Z,65.92
2022-11-24T09:34:14.154Z,66.07
2022-11-24T09:36:42.139Z,66.40
2022-11-24T09:39:11.570Z,64.98
2022-11-24T09:41:57.048Z,65.78
2022-11-24T09:44:54.842Z,63.82
2022-11-24T09:47:34.643Z,63.36
2022-11-24T09:50:06.197Z,63.64
2022-11-24T09:52:41.650Z,63.45
2022-11-24T09:55:31.599Z,62.04
2022-11-24T09:58:10.651Z,59.59
2022-11-24T10:00:39.061Z,59.39
2022-11-24T10:03:16.959Z,58.32
2022-11-24T10:05:46.630Z,58.13
2022-11-24T10:08:28.922Z,58.97
2022-11-24T10:11:00.626Z,58.11
2022-11-24T10:13:46.779Z,58.22
2022-11-24T10:16:22.874Z,57.48
2022-11-24T10:19:04.581Z,58.12
2022-11-24T10:21:44.403Z,57.63
2022-11-24T10:24:32.253Z,56.75
2022-11-24T10:27:04.022Z,57.10
2022-11-24T10:29:37.640Z,55.44
2022-11-24T10:32:12.927Z,55.81
2022-11-24T10:34:46.106Z,56.48
2022-11-24T10:37:21.223Z,55.85
2022-11-24T10:40:00.263Z,54.54
2022-11-24T10:42:31.503Z,54.96
2022-11-24T10:45:03.595Z,54.86
2022-11-24T10:47:32.068Z,55.45
2022-11-24T10:50:05.874Z,54.88
2022-11-24T10:52:42.350Z,53.94
2022-11-24T10:55:10.762Z,53.38
2022-11-24T10:57:41.549Z,52.18
2022-11-24T11:00:32.892Z,52.48
2022-11-24T11:03:19.095Z,51.96
2022-11-24T11:05:53.461Z,51.80
2022-11-24T11:08:27.290Z,52.44
2022-11-24T11:11:15.031Z,52.56
2022-11-24T11:14:03.500Z,52.71
2022-11-24T11:16:37.905Z,51.53
2022-11-24T11:19:26.034Z,51.15
2022-11-24T11:22:03.523Z,51.57
2022-11-24T11:24:31.891Z,51.61
2022-11-24T11:27:02.102Z,51.02
2022-11-24T11:35:14.367Z,50.14
2022-11-24T11:37:45.310Z,51.11
2022-11-24T11:40:17.112Z,50.05
2022-11-24T11:43:05.984Z,50.19
2022-11-24T11:45:36.790Z,50.65
2022-11-24T11:48:22.375Z,50.71
2022-11-24T11:51:21.725Z,51.07
2022-11-24T11:53:48.388Z,51.00
2022-11-24T11:56:25.469Z,51.82
2022-11-24T11:59:13.433Z,52.46
2022-11-24T12:02:10.651Z,53.21
2022-11-24T12:04:47.074Z,53.02
2022-11-24T12:07:40.184Z,52.77
2022-11-24T12:10:18.141Z,52.20
2022-11-24T12:13:30.829Z,52.95
2022-11-24T12:16:04.471Z,53.75
2022-11-24T12:18:57.193Z,55.22
2022-11-24T12:21:31.555Z,55.66
2022-11-24T12:24:11.756Z,56.85
2022-11-24T12:26:47.565Z,56.98
2022-11-24T12:29:53.632Z,57.16
2022-11-24T12:32:34.308Z,57.34
2022-11-24T12:35:16.793Z,57.80
2022-11-24T12:37:56.453Z,57.90
2022-11-24T12:40:39.764Z,58.19
2022-11-24T12:43:19.668Z,58.37
2022-11-24T12:45:55.422Z,58.88
2022-11-24T12:48:36.648Z,59.00
2022-11-24T12:51:07.742Z,59.22
2022-11-24T12:53:37.347Z,59.84
2022-11-24T12:56:08.281Z,59.38
2022-11-24T12:58:50.200Z,60.53
2022-11-24T13:01:30.495Z,60.09
2022-11-24T13:04:08.582Z,60.30
2022-11-24T13:06:49.334Z,60.57
2022-11-24T13:09:17.893Z,60.36
2022-11-24T13:11:47.152Z,60.53
2022-11-24T13:14:23.608Z,61.08
2022-11-24T13:19:45.850Z,60.62
2022-11-24T13:22:19.782Z,61.32
2022-11-24T13:25:10.241Z,61.28
2022-11-24T13:27:44.908Z,61.73
2022-11-24T13:30:52.384Z,61.32
2022-11-24T13:33:39.814Z,61.99
2022-11-24T13:36:32.988Z,61.11
2022-11-24T13:39:02.408Z,60.64
2022-11-24T13:42:10.549Z,61.05
2022-11-24T13:44:59.721Z,60.58
2022-11-24T13:47:42.724Z,60.33
2022-11-24T13:50:25.566Z,60.77
2022-11-24T13:53:01.371Z,60.84
2022-11-24T13:55:38.740Z,60.47
2022-11-24T13:58:28.916Z,61.03
2022-11-24T14:01:05.248Z,60.62
2022-11-24T14:03:35.834Z,60.83
2022-11-24T14:06:05.777Z,60.24
2022-11-24T14:08:37.085Z,60.50
2022-11-24T14:11:14.305Z,60.45
2022-11-24T14:13:42.253Z,59.78
2022-11-24T14:16:18.061Z,59.21
2022-11-24T14:18:47.961Z,58.79
2022-11-24T14:21:31.655Z,58.42
2022-11-24T14:24:13.778Z,58.09
2022-11-24T14:26:42.917Z,57.61
2022-11-24T14:29:16.909Z,57.92
2022-11-24T14:31:52.918Z,58.21
2022-11-24T14:34:25.233Z,58.45
2022-11-24T14:36:56.032Z,58.56
2022-11-24T14:39:25.937Z,58.88
2022-11-24T14:41:58.881Z,59.14
2022-11-24T14:44:29.744Z,59.85
2022-11-24T14:47:05.723Z,59.51
2022-11-24T14:49:35.430Z,59.59
2022-11-24T14:52:12.830Z,59.38
2022-11-24T14:54:48.487Z,59.11
2022-11-24T14:57:26.339Z,59.56
2022-11-24T15:00:19.461Z,58.32
2022-11-24T15:02:51.897Z,58.64
2022-11-24T15:05:21.624Z,57.98
2022-11-24T15:07:53.411Z,59.22
2022-11-24T15:10:33.748Z,59.33
2022-11-24T15:13:04.417Z,59.31
2022-11-24T15:15:35.482Z,58.98
2022-11-24T15:18:05.155Z,58.83
2022-11-24T15:20:36.262Z,59.05
2022-11-24T15:23:21.959Z,59.10
2022-11-24T15:25:51.061Z,58.90
2022-11-24T15:28:19.624Z,59.20
2022-11-24T15:30:47.589Z,59.21
2022-11-24T15:33:17.608Z,59.58
2022-11-24T15:35:45.781Z,59.48
2022-11-24T15:38:15.857Z,59.95
2022-11-24T15:40:46.720Z,60.44
2022-11-24T15:43:22.369Z,60.31
2022-11-24T15:45:50.290Z,59.82
2022-11-24T15:48:18.570Z,59.61
2022-11-24T15:50:47.224Z,59.32
2022-11-24T15:53:22.432Z,59.15
2022-11-24T15:55:51.329Z,57.83
2022-11-24T15:58:19.661Z,57.98
2022-11-24T16:00:47.597Z,57.99
2022-11-24T16:03:45.852Z,58.09
2022-11-24T16:06:03.514Z,57.41
2022-11-24T16:08:32.806Z,57.87
2022-11-24T16:11:00.640Z,57.41
2022-11-24T16:13:28.539Z,56.84
2022-11-24T16:15:56.596Z,57.42
2022-11-24T16:18:26.384Z,56.73
2022-11-24T16:20:54.227Z,57.29
2022-11-24T16:23:22.222Z,56.91
2022-11-24T16:25:51.551Z,57.04
2022-11-24T16:28:20.369Z,56.70
2022-11-24T16:30:50.807Z,57.62
2022-11-24T16:33:20.489Z,56.92
2022-11-24T16:35:49.289Z,57.21
2022-11-24T16:38:17.740Z,57.85
2022-11-24T16:40:45.956Z,57.09
2022-11-24T16:43:15.327Z,56.75
2022-11-24T16:45:45.481Z,57.04
2022-11-24T16:48:13.721Z,57.02
2022-11-24T16:50:41.758Z,56.69
2022-11-24T16:53:09.686Z,56.93
2022-11-24T16:55:37.582Z,57.05
2022-11-24T16:58:06.025Z,57.29
2022-11-24T17:00:35.241Z,57.65
2022-11-24T17:03:03.185Z,57.51
2022-11-24T17:05:31.133Z,56.63
2022-11-24T17:07:59.634Z,58.12
2022-11-24T17:10:27.669Z,57.79
2022-11-24T17:12:55.502Z,58.34
2022-11-24T17:15:34.554Z,57.42
2022-11-24T17:18:24.055Z,58.54
2022-11-24T17:20:53.042Z,58.86
2022-11-24T17:23:20.937Z,58.38
2022-11-24T17:25:49.242Z,58.18
2022-11-24T17:28:17.212Z,58.88
2022-11-24T17:30:45.173Z,59.30
2022-11-24T17:33:14.470Z,59.70
2022-11-24T17:35:42.400Z,59.19
2022-11-24T17:38:10.399Z,59.54
2022-11-24T17:40:38.416Z,59.38
2022-11-24T17:43:06.342Z,59.33
2022-11-24T17:45:34.385Z,59.31
2022-11-24T17:48:02.465Z,59.07
2022-11-24T17:50:31.769Z,58.73
2022-11-24T17:52:59.662Z,58.47
2022-11-24T17:55:27.905Z,59.04
2022-11-24T17:57:57.096Z,57.93
2022-11-24T18:00:25.386Z,58.98
2022-11-24T18:02:53.258Z,58.57
2022-11-24T18:05:21.797Z,58.05
2022-11-24T18:07:51.187Z,58.59
2022-11-24T18:10:20.179Z,58.67
2022-11-24T18:12:48.215Z,58.89
2022-11-24T18:15:16.074Z,58.69
2022-11-24T18:17:43.997Z,56.95
2022-11-24T18:20:12.513Z,57.32
2022-11-24T18:23:04.697Z,58.38
2022-11-24T18:25:29.782Z,58.27
2022-11-24T18:27:58.001Z,57.82
2022-11-24T18:30:26.080Z,57.52
2022-11-24T18:32:53.957Z,57.84
2022-11-24T18:35:21.852Z,57.24
2022-11-24T18:37:49.795Z,57.82
2022-11-24T18:40:20.111Z,57.85
2022-11-24T18:42:49.378Z,58.51
2022-11-24T18:45:17.504Z,58.08
2022-11-24T18:47:45.461Z,58.23
2022-11-24T18:50:13.413Z,58.41
2022-11-24T18:52:41.502Z,58.54
2022-11-24T18:55:09.962Z,58.81
2022-11-24T18:57:37.863Z,58.51
2022-11-24T19:00:08.754Z,58.51
2022-11-24T19:02:36.947Z,59.78
2022-11-24T19:05:07.762Z,59.15
2022-11-24T19:07:35.833Z,59.35
2022-11-24T19:10:03.851Z,59.80
2022-11-24T19:12:31.759Z,59.90
2022-11-24T19:14:59.698Z,59.43
2022-11-24T19:17:28.951Z,59.81
2022-11-24T19:19:57.299Z,59.94
2022-11-24T19:22:25.300Z,59.61
2022-11-24T19:24:53.348Z,59.62
2022-11-24T19:27:22.105Z,59.06
2022-11-24T19:29:50.027Z,59.39
2022-11-24T19:32:19.543Z,59.18
2022-11-24T19:34:49.370Z,58.93
2022-11-24T19:37:17.448Z,59.51
2022-11-24T19:39:45.405Z,59.87
2022-11-24T19:42:13.816Z,59.55
2022-11-24T19:44:41.720Z,59.24
2022-11-24T19:47:09.647Z,59.81
2022-11-24T19:49:37.587Z,59.42
2022-11-24T19:52:06.893Z,59.76
2022-11-24T19:54:35.716Z,60.08
2022-11-24T19:57:03.809Z,60.06
2022-11-24T19:59:31.730Z,59.27
2022-11-24T20:02:00.225Z,59.09
2022-11-24T20:04:28.288Z,59.51
2022-11-24T20:06:56.385Z,59.86
2022-11-24T20:09:26.053Z,59.46
2022-11-24T20:11:53.937Z,60.01
2022-11-24T20:14:22.136Z,59.57
2022-11-24T20:16:50.158Z,60.42
2022-11-24T20:19:19.109Z,60.50
2022-11-24T20:21:49.419Z,60.53
2022-11-24T20:24:19.216Z,60.30
2022-11-24T20:26:51.011Z,60.24
2022-11-24T20:29:19.218Z,60.72
2022-11-24T20:31:50.128Z,60.35
2022-11-24T20:34:18.147Z,60.61
2022-11-24T20:36:48.065Z,61.01
2022-11-24T20:39:18.237Z,60.99
2022-11-24T20:41:46.319Z,60.70
2022-11-24T20:44:17.843Z,60.55
2022-11-24T20:46:47.887Z,60.45
2022-11-24T20:49:18.864Z,60.41
2022-11-24T20:51:48.091Z,60.93
2022-11-24T20:54:17.674Z,60.89
2022-11-24T20:56:47.430Z,60.48
2022-11-24T20:59:21.511Z,60.81
2022-11-24T21:01:50.459Z,60.10
2022-11-24T21:04:21.495Z,59.52
2022-11-24T21:06:50.117Z,59.88
2022-11-24T21:09:18.994Z,60.45
2022-11-24T21:11:47.209Z,59.46
2022-11-24T21:14:16.704Z,59.60
2022-11-24T21:16:44.989Z,59.88
2022-11-24T21:19:17.173Z,60.09
2022-11-24T21:21:47.460Z,59.66
2022-11-24T21:24:17.126Z,59.14
2022-11-24T21:26:47.582Z,59.65
2022-11-24T21:29:20.277Z,59.04
2022-11-24T21:31:48.605Z,59.02
2022-11-24T21:34:18.702Z,59.09
2022-11-24T21:36:46.733Z,59.60
2022-11-24T21:39:15.915Z,59.32
2022-11-24T21:41:44.306Z,58.94
2022-11-24T21:44:12.863Z,59.53
2022-11-24T21:46:48.276Z,59.16
2022-11-24T21:49:18.909Z,59.81
2022-11-24T21:51:47.153Z,59.83
2022-11-24T21:54:15.013Z,59.75
2022-11-24T21:56:42.974Z,60.17
2022-11-24T21:59:11.171Z,60.73
2022-11-24T22:01:39.178Z,59.97
2022-11-24T22:04:08.505Z,60.16
2022-11-24T22:06:36.714Z,59.87
2022-11-24T22:09:04.796Z,60.17
2022-11-24T22:11:32.901Z,60.77
2022-11-24T22:14:00.860Z,60.57
2022-11-24T22:16:29.005Z,60.68
2022-11-24T22:18:57.024Z,60.59
2022-11-24T22:21:30.128Z,60.50
2022-11-24T22:23:58.147Z,61.25
2022-11-24T22:26:27.575Z,61.12
2022-11-24T22:28:56.321Z,60.80
2022-11-24T22:31:26.260Z,61.57
2022-11-24T22:33:55.167Z,61.06
2022-11-24T22:36:25.212Z,61.40
2022-11-24T22:38:56.577Z,61.45
2022-11-24T22:41:24.556Z,61.31
2022-11-24T22:43:53.032Z,61.37
2022-11-24T22:46:23.647Z,61.50
2022-11-24T22:48:53.292Z,61.00
2022-11-24T22:51:23.377Z,61.72
2022-11-24T22:53:53.412Z,61.10
2022-11-24T22:56:23.354Z,61.32
2022-11-24T22:58:51.998Z,62.03
2022-11-24T23:01:24.085Z,61.65
2022-11-24T23:03:54.377Z,61.30
2022-11-24T23:06:24.712Z,61.38
2022-11-24T23:08:53.499Z,61.59
2022-11-24T23:11:30.757Z,62.05
2022-11-24T23:14:01.397Z,62.11
2022-11-24T23:16:30.124Z,61.78
2022-11-24T23:18:58.667Z,61.89
2022-11-24T23:21:28.208Z,62.17
2022-11-24T23:23:56.910Z,61.77
2022-11-24T23:26:28.196Z,61.98
2022-11-24T23:28:56.255Z,61.97
2022-11-24T23:31:27.531Z,61.65
2022-11-24T23:33:55.769Z,61.70
2022-11-24T23:36:23.733Z,61.29
2022-11-24T23:38:52.216Z,61.76
2022-11-24T23:41:22.712Z,61.67
2022-11-24T23:43:53.351Z,61.25
2022-11-24T23:46:23.146Z,61.41
2022-11-24T23:48:52.350Z,61.81
2022-11-24T23:51:22.258Z,61.88
2022-11-24T23:53:50.353Z,61.60
2022-11-24T23:56:20.482Z,61.22
2022-11-24T23:58:48.854Z,61.24
